Time;durP1;ratioP1;P1;durP2;ratioP2;P2;SDS_P1;SDS_P2;PMS_P1;PMS_P2;Temp;Humidity;BMP_temperature;BMP_pressure;BME280_temperature;BME280_humidity;BME280_pressure;Samples;Min_cycle;Max_cycle;Signal;HPM_P1;HPM_P2
2023/03/22 00:01:59;;;;;;;11.10;10.10;;;;;;;9.70;100.00;-18049.69;5048353;28;20181;-60
2023/03/22 00:04:27;;;;;;;13.37;10.60;;;;;;;9.65;100.00;-18050.47;5048850;28;20202;-60
2023/03/22 00:06:54;;;;;;;11.17;9.97;;;;;;;9.69;100.00;-18051.31;5048535;28;20699;-60
2023/03/22 00:09:21;;;;;;;15.30;10.27;;;;;;;9.74;100.00;-18052.50;5048696;28;20736;-61
2023/03/22 00:11:49;;;;;;;14.93;10.87;;;;;;;9.72;100.00;-18052.16;5048337;28;20689;-60
2023/03/22 00:14:17;;;;;;;11.27;10.20;;;;;;;9.63;100.00;-18048.25;5048189;28;20258;-59
2023/03/22 00:16:47;;;;;;;10.97;9.80;;;;;;;9.70;100.00;-18049.69;5048340;28;20225;-60
2023/03/22 00:19:15;;;;;;;13.27;10.40;;;;;;;9.88;100.00;-18054.03;5049977;28;20276;-60
2023/03/22 00:21:42;;;;;;;11.33;10.17;;;;;;;9.73;100.00;-17415.69;5052149;28;20189;-60
2023/03/22 00:24:09;;;;;;;11.63;10.30;;;;;;;10.02;100.00;-16152.03;5052038;28;20216;-60
2023/03/22 00:26:35;;;;;;;10.87;9.47;;;;;;;9.82;100.00;-14559.63;5052062;28;20656;-60
2023/03/22 00:29:02;;;;;;;11.90;10.27;;;;;;;9.91;100.00;-13925.72;5051662;28;20190;-60
2023/03/22 00:31:29;;;;;;;12.53;10.20;;;;;;;9.92;100.00;-14561.47;5051433;28;20199;-61
2023/03/22 00:33:57;;;;;;;14.67;10.47;;;;;;;10.02;100.00;-15198.91;5051912;28;20620;-60
2023/03/22 00:36:24;;;;;;;12.17;10.93;;;;;;;10.06;100.00;-15199.69;5051752;28;20648;-61
2023/03/22 00:38:51;;;;;;;13.30;10.50;;;;;;;10.08;100.00;-13928.69;5051812;28;20632;-60
2023/03/22 00:41:20;;;;;;;15.97;10.93;;;;;;;9.87;100.00;-13925.09;5051452;28;20217;-60
2023/03/22 00:43:48;;;;;;;12.80;10.87;;;;;;;9.98;100.00;-14244.78;5051368;28;20182;-60
2023/03/22 00:46:18;;;;;;;12.20;11.10;;;;;;;9.87;100.00;-14560.66;5051250;28;20197;-61
2023/03/22 00:48:44;;;;;;;15.13;11.00;;;;;;;10.07;100.00;-14564.25;5051280;28;20189;-59
2023/03/22 00:51:13;;;;;;;12.60;11.27;;;;;;;9.94;100.00;-13608.38;5051282;28;20186;-60
2023/03/22 00:53:41;;;;;;;13.13;11.90;;;;;;;9.96;100.00;-13290.91;5051263;28;20202;-60
2023/03/22 00:56:08;;;;;;;15.50;11.57;;;;;;;9.89;100.00;-13925.44;5051239;28;20200;-59
2023/03/22 00:58:35;;;;;;;16.07;11.53;;;;;;;9.95;100.00;-14562.03;5051144;28;20197;-60
2023/03/22 01:01:02;;;;;;;15.47;12.10;;;;;;;9.76;100.00;-15193.81;5051195;28;20185;-60
2023/03/22 01:03:29;;;;;;;12.23;11.07;;;;;;;9.89;100.00;-16466.97;5051449;28;20200;-62
2023/03/22 01:05:56;;;;;;;20.73;12.70;;;;;;;9.81;100.00;-16465.13;5051441;28;20189;-60
2023/03/22 01:08:31;;;;;;;14.27;12.47;;;;;;;9.62;100.00;-17095.94;5051130;28;20265;-60
2023/03/22 01:10:59;;;;;;;16.27;12.37;;;;;;;9.60;100.00;-18047.38;5051322;28;20551;-62
2023/03/22 01:13:25;;;;;;;14.97;13.10;;;;;;;9.69;100.00;-18051.31;5050755;28;20633;-60
2023/03/22 01:15:52;;;;;;;14.33;12.30;;;;;;;9.56;100.00;-18048.28;5051189;28;20189;-60
2023/03/22 01:18:19;;;;;;;15.70;12.60;;;;;;;9.42;100.00;-18045.00;5050889;28;20186;-59
2023/03/22 01:20:46;;;;;;;16.33;13.50;;;;;;;9.82;100.00;-18052.59;5050924;28;20186;-60
2023/03/22 01:23:13;;;;;;;19.10;13.00;;;;;;;9.72;100.00;-17732.97;5051140;28;20197;-60
2023/03/22 01:25:41;;;;;;;14.87;11.80;;;;;;;10.07;100.00;-17423.56;5051162;28;20560;-60
2023/03/22 01:28:08;;;;;;;17.07;12.87;;;;;;;10.13;100.00;-16472.03;5050938;28;20192;-60
2023/03/22 01:30:35;;;;;;;14.30;12.67;;;;;;;10.22;100.00;-14884.94;5050779;28;20644;-60
2023/03/22 01:33:02;;;;;;;19.50;12.80;;;;;;;10.21;100.00;-13294.94;5050898;28;20557;-59
2023/03/22 01:35:29;;;;;;;15.20;13.00;;;;;;;10.30;100.00;-12660.19;5050614;28;20185;-60
2023/03/22 01:37:56;;;;;;;19.33;13.03;;;;;;;10.23;100.00;-10749.88;5050646;28;20296;-61
2023/03/22 01:40:23;;;;;;;17.00;13.90;;;;;;;10.28;100.00;-10432.16;5050890;28;20189;-59
2023/03/22 01:42:53;;;;;;;15.73;13.10;;;;;;;10.27;100.00;-9795.22;5050874;28;20185;-59
2023/03/22 01:45:39;;;;;;;18.90;13.43;;;;;;;10.27;100.00;-9476.81;5050495;28;20186;-59
2023/03/22 01:48:11;;;;;;;20.93;12.63;;;;;;;10.37;100.00;-9159.38;5050204;28;20670;-61
2023/03/22 01:50:41;;;;;;;16.20;12.70;;;;;;;10.42;100.00;-9159.81;5050920;28;20484;-60
2023/03/22 01:53:10;;;;;;;16.27;13.07;;;;;;;10.42;100.00;-8522.69;5050213;28;20205;-60
2023/03/22 01:55:38;;;;;;;14.33;11.80;;;;;;;10.40;100.00;-7247.81;5050377;28;20220;-59
2023/03/22 01:58:07;;;;;;;14.13;12.73;;;;;;;10.41;100.00;-6291.59;5050385;28;20257;-59
2023/03/22 02:00:34;;;;;;;14.00;12.57;;;;;;;10.30;100.00;-6291.00;5050195;28;20198;-60
2023/03/22 02:03:01;;;;;;;21.10;13.27;;;;;;;10.38;100.00;-6610.19;5050500;28;20650;-60
2023/03/22 02:05:29;;;;;;;22.53;14.00;;;;;;;10.24;100.00;-7884.03;5050578;28;20631;-60
2023/03/22 02:07:57;;;;;;;17.77;13.33;;;;;;;10.25;100.00;-8521.22;5050070;28;20182;-60
2023/03/22 02:10:26;;;;;;;17.20;13.53;;;;;;;10.20;100.00;-9476.09;5050151;28;20192;-61
2023/03/22 02:13:20;;;;;;;16.13;13.60;;;;;;;10.18;100.00;-10749.22;5050256;28;20209;-61
2023/03/22 02:16:00;;;;;;;16.90;13.37;;;;;;;10.21;100.00;-11704.28;5042033;28;20653;-60
2023/03/22 02:18:38;;;;;;;20.57;13.77;;;;;;;9.96;100.00;-12655.03;5049939;28;20193;-60
2023/03/22 02:21:52;;;;;;;25.57;14.17;;;;;;;9.90;100.00;-13925.63;5049719;28;20197;-61
2023/03/22 02:25:04;;;;;;;15.77;13.07;;;;;;;9.87;100.00;-16148.97;4988654;28;20608;-60
2023/03/22 02:28:00;;;;;;;15.50;13.63;;;;;;;9.87;100.00;-18053.81;5050047;28;20306;-60
2023/03/22 02:31:00;;;;;;;17.80;12.90;;;;;;;9.84;100.00;-18055.06;5049985;28;20268;-61
2023/03/22 02:33:46;;;;;;;21.17;13.50;;;;;;;9.88;100.00;-18055.91;5049736;28;20240;-60
2023/03/22 02:36:52;;;;;;;23.60;14.30;;;;;;;9.84;100.00;-18055.06;5050091;28;20189;-60
2023/03/22 02:39:35;;;;;;;23.63;14.47;;;;;;;9.79;100.00;-18053.84;5032547;28;20568;-60
2023/03/22 02:42:23;;;;;;;20.30;14.67;;;;;;;9.76;100.00;-18053.13;5049120;28;20189;-62
2023/03/22 02:45:00;;;;;;;21.03;14.50;;;;;;;9.47;100.00;-18044.38;5049558;28;20197;-60
2023/03/22 02:47:38;;;;;;;24.93;14.40;;;;;;;9.50;100.00;-17410.63;5049291;27;20235;-61
2023/03/22 02:50:11;;;;;;;18.07;13.73;;;;;;;9.67;100.00;-16462.09;5049469;28;20185;-60
2023/03/22 02:52:41;;;;;;;20.20;14.10;;;;;;;9.76;100.00;-15829.09;5049377;28;20205;-61
2023/03/22 02:55:17;;;;;;;18.53;13.77;;;;;;;9.74;100.00;-15511.13;5049572;28;20197;-59
2023/03/22 02:57:48;;;;;;;20.33;14.90;;;;;;;9.85;100.00;-15195.56;5049698;28;20257;-60
2023/03/22 03:00:17;;;;;;;17.73;13.63;;;;;;;9.83;100.00;-15195.19;5049340;28;20192;-60
2023/03/22 03:02:48;;;;;;;24.20;14.60;;;;;;;9.60;100.00;-15508.31;5049567;28;20216;-61
2023/03/22 03:05:17;;;;;;;19.37;14.70;;;;;;;9.36;100.00;-15186.09;5049155;28;20204;-60
2023/03/22 03:07:50;;;;;;;20.10;14.17;;;;;;;9.46;100.00;-14870.66;5049243;28;20192;-61
2023/03/22 03:10:21;;;;;;;20.93;15.00;;;;;;;9.19;100.00;-14548.16;5031820;28;20605;-61
2023/03/22 03:12:47;;;;;;;37.20;18.67;;;;;;;9.28;100.00;-13914.88;5049005;28;20590;-60
2023/03/22 03:15:17;;;;;;;46.73;21.63;;;;;;;9.10;100.00;-13276.84;5049128;28;20196;-61
2023/03/22 03:18:00;;;;;;;68.63;28.53;;;;;;;8.95;100.00;-12957.03;5048985;28;20196;-60
2023/03/22 03:20:38;;;;;;;67.93;28.00;;;;;;;9.16;100.00;-12642.78;5049278;28;20551;-61
2023/03/22 03:23:19;;;;;;;78.20;25.17;;;;;;;9.17;100.00;-12325.41;5049295;28;20200;-61
2023/03/22 03:25:57;;;;;;;46.27;18.03;;;;;;;8.86;100.00;-12003.25;5048999;28;20193;-61
2023/03/22 03:28:37;;;;;;;41.43;18.67;;;;;;;9.02;100.00;-12005.63;5049127;28;20620;-60
2023/03/22 03:31:12;;;;;;;50.80;18.40;;;;;;;9.06;100.00;-11688.63;5048991;28;20194;-61
2023/03/22 03:33:45;;;;;;;49.57;18.83;;;;;;;9.09;100.00;-11689.03;5048735;28;20209;-60
2023/03/22 03:36:17;;;;;;;37.90;18.00;;;;;;;9.05;100.00;-11370.78;5049286;28;20190;-62
2023/03/22 03:38:49;;;;;;;37.07;17.97;;;;;;;8.88;100.00;-11686.03;5048735;28;20250;-61
2023/03/22 03:41:20;;;;;;;37.67;18.33;;;;;;;8.98;100.00;-11369.84;5048603;28;20190;-61
2023/03/22 03:43:48;;;;;;;38.77;18.37;;;;;;;9.03;100.00;-11688.19;5048620;28;20177;-59
2023/03/22 03:46:16;;;;;;;38.90;18.00;;;;;;;9.11;100.00;-11689.25;5048435;28;20200;-62
2023/03/22 03:48:47;;;;;;;39.00;19.93;;;;;;;9.21;100.00;-11372.88;5048694;28;20185;-61
2023/03/22 03:51:14;;;;;;;45.27;20.07;;;;;;;9.17;100.00;-11372.41;5048581;28;20181;-60
2023/03/22 03:53:41;;;;;;;45.67;18.53;;;;;;;9.24;100.00;-11373.34;5048422;28;20209;-61
2023/03/22 03:56:11;;;;;;;37.63;23.17;;;;;;;9.20;100.00;-11372.72;5048511;28;20189;-60
2023/03/22 03:58:39;;;;;;;54.37;25.50;;;;;;;9.24;100.00;-11055.53;5048506;28;20192;-61
2023/03/22 04:01:07;;;;;;;52.50;26.27;;;;;;;9.21;100.00;-11055.19;5048731;28;20189;-61
2023/03/22 04:03:34;;;;;;;59.33;29.27;;;;;;;9.21;100.00;-11372.94;5048476;28;20198;-61
2023/03/22 04:06:01;;;;;;;65.97;28.77;;;;;;;9.35;100.00;-11374.75;5048357;28;20197;-61
2023/03/22 04:08:28;;;;;;;54.13;29.23;;;;;;;9.41;100.00;-11375.59;5048777;28;20190;-60
2023/03/22 04:10:58;;;;;;;54.77;28.53;;;;;;;9.44;100.00;-11693.81;5048326;28;20261;-61
2023/03/22 04:13:24;;;;;;;56.47;26.77;;;;;;;9.32;100.00;-11692.16;5048373;28;20220;-61
2023/03/22 04:15:56;;;;;;;47.13;25.77;;;;;;;9.44;100.00;-11693.81;5048273;28;20193;-61
2023/03/22 04:18:24;;;;;;;48.57;24.77;;;;;;;9.57;100.00;-11695.63;5048617;28;20269;-60
2023/03/22 04:20:52;;;;;;;50.80;25.17;;;;;;;9.58;100.00;-11695.69;5048540;28;20702;-61
2023/03/22 04:23:21;;;;;;;43.67;22.43;;;;;;;9.51;100.00;-11694.72;5048349;28;20609;-61
2023/03/22 04:25:49;;;;;;;49.90;24.07;;;;;;;9.52;100.00;-12012.75;5048170;28;20181;-62
2023/03/22 04:28:18;;;;;;;41.67;20.10;;;;;;;9.48;100.00;-12329.88;5048347;28;20284;-62
2023/03/22 04:30:49;;;;;;;29.00;19.03;;;;;;;9.39;100.00;-12646.25;5048423;28;20567;-60
2023/03/22 04:33:18;;;;;;;39.33;19.60;;;;;;;9.38;100.00;-12646.16;5048017;28;20241;-61
2023/03/22 04:35:45;;;;;;;31.63;18.80;;;;;;;9.51;100.00;-12648.09;5048380;28;20209;-61
2023/03/22 04:38:13;;;;;;;36.07;19.37;;;;;;;9.50;100.00;-12648.00;5047998;28;20273;-61
2023/03/22 04:40:45;;;;;;;32.10;20.33;;;;;;;9.62;100.00;-12332.06;5047933;28;20200;-60
2023/03/22 04:43:14;;;;;;;37.37;21.00;;;;;;;9.53;100.00;-12330.72;5048255;28;20234;-61
2023/03/22 04:45:42;;;;;;;39.53;22.03;;;;;;;9.49;100.00;-12330.09;5048472;28;20220;-61
2023/03/22 04:48:10;;;;;;;38.33;21.23;;;;;;;9.15;100.00;-12960.22;5047996;28;20323;-61
2023/03/22 04:50:39;;;;;;;40.43;24.00;;;;;;;9.57;100.00;-12649.09;5047971;28;20190;-61
2023/03/22 04:53:07;;;;;;;43.33;24.43;;;;;;;9.49;100.00;-12647.84;5048079;28;20648;-60
2023/03/22 04:55:34;;;;;;;41.73;23.83;;;;;;;9.53;100.00;-12648.47;5048088;28;20568;-62
2023/03/22 04:58:01;;;;;;;38.10;23.60;;;;;;;9.59;100.00;-12967.16;5047836;28;20196;-61
2023/03/22 05:00:29;;;;;;;42.63;24.17;;;;;;;9.76;100.00;-12969.81;5047649;28;20186;-61
2023/03/22 05:02:57;;;;;;;43.27;25.07;;;;;;;9.77;100.00;-12969.88;5047844;28;20625;-61
2023/03/22 05:05:23;;;;;;;43.80;25.53;;;;;;;9.86;100.00;-13289.19;5049250;28;20193;-61
2023/03/22 05:07:52;;;;;;;47.33;25.30;;;;;;;9.83;100.00;-12970.91;5051380;28;20202;-61
2023/03/22 05:10:19;;;;;;;52.63;27.07;;;;;;;9.77;100.00;-12969.97;5051078;28;20198;-62
2023/03/22 05:12:46;;;;;;;41.73;24.37;;;;;;;9.82;100.00;-13288.53;5051022;28;20190;-62
2023/03/22 05:15:13;;;;;;;48.57;25.50;;;;;;;9.70;100.00;-13286.63;5050939;28;20679;-60
2023/03/22 05:17:40;;;;;;;51.43;25.37;;;;;;;9.83;100.00;-13606.59;5051072;28;20182;-61
2023/03/22 05:20:08;;;;;;;41.33;25.63;;;;;;;9.90;100.00;-13607.72;5051148;28;20250;-61
2023/03/22 05:22:39;;;;;;;45.47;24.30;;;;;;;9.91;100.00;-13925.81;5051114;28;20185;-61
2023/03/22 05:25:09;;;;;;;38.00;23.80;;;;;;;9.83;100.00;-13606.59;5051124;28;20643;-61
2023/03/22 05:27:37;;;;;;;39.03;22.97;;;;;;;9.92;100.00;-13925.97;5051148;28;20219;-62
2023/03/22 05:30:06;;;;;;;32.67;20.73;;;;;;;9.93;100.00;-14243.97;5050912;28;20202;-61
2023/03/22 05:32:36;;;;;;;29.00;17.97;;;;;;;9.89;100.00;-14561.03;5051042;28;20182;-61
2023/03/22 05:35:03;;;;;;;40.73;20.43;;;;;;;9.85;100.00;-14560.19;5050893;28;20232;-61
2023/03/22 05:37:31;;;;;;;35.70;19.40;;;;;;;9.96;100.00;-15197.72;5051115;28;20186;-62
2023/03/22 05:39:57;;;;;;;27.33;17.40;;;;;;;9.91;100.00;-14879.03;5050605;28;20190;-62
2023/03/22 05:42:26;;;;;;;19.67;14.83;;;;;;;9.89;100.00;-15196.47;5050891;28;20186;-61
2023/03/22 05:44:53;;;;;;;14.03;11.63;;;;;;;9.79;100.00;-14559.16;5050680;28;20185;-60
2023/03/22 05:47:20;;;;;;;10.03;8.63;;;;;;;9.68;100.00;-14557.03;5050372;28;20248;-60
2023/03/22 05:49:47;;;;;;;10.57;9.83;;;;;;;9.54;100.00;-14554.63;5050424;28;20228;-61
2023/03/22 05:52:13;;;;;;;10.20;9.20;;;;;;;9.79;100.00;-14876.75;5050682;28;20259;-61
2023/03/22 05:54:40;;;;;;;10.67;9.53;;;;;;;9.80;100.00;-14559.34;5050599;28;20209;-61
2023/03/22 05:57:07;;;;;;;7.67;7.23;;;;;;;9.35;100.00;-13916.09;5050368;28;20201;-61
2023/03/22 05:59:35;;;;;;;8.77;8.17;;;;;;;9.22;100.00;-14231.28;5050622;28;20216;-62
2023/03/22 06:02:02;;;;;;;8.57;7.90;;;;;;;9.19;100.00;-14230.75;5050240;28;20186;-61
2023/03/22 06:04:29;;;;;;;9.23;8.43;;;;;;;9.12;100.00;-14229.47;5050600;28;20193;-62
2023/03/22 06:06:56;;;;;;;8.77;8.17;;;;;;;8.89;100.00;-13590.72;5050076;28;20197;-60
2023/03/22 06:09:23;;;;;;;9.70;9.10;;;;;;;9.02;100.00;-13592.94;5050340;28;20181;-61
2023/03/22 06:11:50;;;;;;;8.33;7.80;;;;;;;8.75;100.00;-12953.84;5050015;28;20654;-61
2023/03/22 06:14:16;;;;;;;7.13;6.80;;;;;;;8.76;100.00;-12319.22;5050326;28;20680;-62
2023/03/22 06:16:45;;;;;;;8.50;7.77;;;;;;;8.88;100.00;-12638.53;5049302;28;20608;-61
2023/03/22 06:19:12;;;;;;;6.47;6.07;;;;;;;8.97;100.00;-12957.28;5050053;28;20190;-61
2023/03/22 06:21:38;;;;;;;7.30;6.70;;;;;;;8.86;100.00;-12320.78;5049885;28;20193;-61
2023/03/22 06:24:06;;;;;;;6.23;5.87;;;;;;;8.80;100.00;-12002.38;5032051;28;20197;-62
2023/03/22 06:26:32;;;;;;;7.47;6.83;;;;;;;8.58;100.00;-11682.00;5049987;28;20190;-61
2023/03/22 06:29:02;;;;;;;6.93;6.53;;;;;;;8.61;100.00;-11999.78;5049825;28;20196;-60
2023/03/22 06:31:29;;;;;;;6.90;6.40;;;;;;;8.73;100.00;-12001.44;5049559;28;20189;-62
2023/03/22 06:33:57;;;;;;;8.03;7.43;;;;;;;8.30;100.00;-11360.88;5049741;28;20201;-61
2023/03/22 06:36:24;;;;;;;8.23;7.30;;;;;;;8.78;100.00;-11684.66;5049456;28;20545;-61
2023/03/22 06:38:50;;;;;;;7.93;7.23;;;;;;;8.76;100.00;-11366.91;5049386;28;20200;-61
2023/03/22 06:41:17;;;;;;;7.03;6.47;;;;;;;8.74;100.00;-11049.22;5049607;28;20233;-61
2023/03/22 06:43:44;;;;;;;7.97;7.37;;;;;;;8.70;100.00;-10731.28;5031796;28;20186;-62
2023/03/22 06:46:11;;;;;;;6.83;6.50;;;;;;;8.60;100.00;-10730.03;5049066;28;20246;-60
2023/03/22 06:48:38;;;;;;;8.20;7.40;;;;;;;8.68;100.00;-11048.50;5049647;28;20185;-60
2023/03/22 06:51:07;;;;;;;7.73;7.03;;;;;;;8.64;100.00;-11365.38;5049198;28;20192;-62
2023/03/22 06:53:34;;;;;;;7.90;7.33;;;;;;;8.80;100.00;-11684.94;5049341;28;20213;-60
2023/03/22 06:56:01;;;;;;;5.90;5.60;;;;;;;8.74;100.00;-11366.66;5049573;28;20613;-61
2023/03/22 06:58:28;;;;;;;7.13;6.63;;;;;;;8.55;100.00;-11364.22;5049067;28;20735;-62
2023/03/22 07:00:55;;;;;;;9.63;9.00;;;;;;;8.73;100.00;-12318.78;5049115;28;20196;-61
2023/03/22 07:03:22;;;;;;;18.73;15.77;;;;;;;8.98;100.00;-12957.44;5049240;28;20212;-61
2023/03/22 07:05:50;;;;;;;26.03;17.20;;;;;;;9.15;100.00;-13277.66;5048955;28;20186;-61
2023/03/22 07:08:18;;;;;;;22.30;15.07;;;;;;;9.22;100.00;-12961.28;5048686;28;20189;-62
2023/03/22 07:10:49;;;;;;;33.03;15.10;;;;;;;9.25;100.00;-12961.75;5048577;28;20181;-61
2023/03/22 07:13:16;;;;;;;15.80;14.20;;;;;;;9.46;100.00;-12647.41;5048865;28;20186;-61
2023/03/22 07:15:43;;;;;;;17.87;15.97;;;;;;;9.51;100.00;-12330.41;5048508;28;20210;-60
2023/03/22 07:18:13;;;;;;;16.17;14.27;;;;;;;9.76;100.00;-12651.94;5048470;28;20186;-60
2023/03/22 07:20:41;;;;;;;15.73;13.97;;;;;;;9.82;100.00;-12334.88;5048895;28;20668;-61
2023/03/22 07:23:09;;;;;;;29.57;16.17;;;;;;;9.87;100.00;-12653.56;5048624;28;20194;-61
2023/03/22 07:25:37;;;;;;;34.60;16.83;;;;;;;9.88;100.00;-12971.72;5048396;28;20245;-61
2023/03/22 07:28:05;;;;;;;28.47;16.63;;;;;;;10.01;100.00;-12973.78;5047797;28;20205;-61
2023/03/22 07:30:36;;;;;;;17.53;13.47;;;;;;;9.96;100.00;-12973.00;5048563;28;20269;-62
2023/03/22 07:33:03;;;;;;;25.30;16.10;;;;;;;9.81;100.00;-12652.63;5048521;28;20189;-61
2023/03/22 07:35:33;;;;;;;20.53;16.77;;;;;;;9.64;100.00;-13603.47;5030784;28;20589;-61
2023/03/22 07:38:01;;;;;;;15.87;14.20;;;;;;;9.50;100.00;-13918.72;5048558;28;20634;-62
2023/03/22 07:40:28;;;;;;;19.90;14.73;;;;;;;9.66;100.00;-13921.34;5048269;28;20210;-61
2023/03/22 07:42:57;;;;;;;26.10;14.57;;;;;;;9.79;100.00;-14241.38;5048289;28;20201;-60
2023/03/22 07:45:25;;;;;;;18.87;13.90;;;;;;;9.92;100.00;-14243.69;5048175;28;20178;-61
2023/03/22 07:47:52;;;;;;;15.73;14.07;;;;;;;9.87;100.00;-14242.81;5048083;28;20233;-61
2023/03/22 07:50:19;;;;;;;22.77;15.00;;;;;;;10.04;100.00;-14245.88;5048124;28;20185;-61
2023/03/22 07:52:46;;;;;;;20.87;16.00;;;;;;;10.14;100.00;-14565.56;5048604;28;20189;-61
2023/03/22 07:55:14;;;;;;;16.27;14.53;;;;;;;10.14;100.00;-14565.56;5048142;28;20599;-62
2023/03/22 07:57:41;;;;;;;30.13;22.10;;;;;;;10.30;100.00;-14568.44;5094071;27;20190;-62
2023/03/22 08:00:11;;;;;;;25.30;20.73;;;;;;;10.40;100.00;-14570.28;5153089;27;20196;-60
2023/03/22 08:02:38;;;;;;;28.50;18.20;;;;;;;10.41;100.00;-14888.56;5152818;27;20613;-61
2023/03/22 08:05:06;;;;;;;30.00;21.17;;;;;;;10.38;100.00;-15205.94;5152187;27;20189;-61
2023/03/22 08:07:33;;;;;;;27.53;20.07;;;;;;;10.32;100.00;-15204.75;5152458;27;20185;-61
2023/03/22 08:10:00;;;;;;;22.37;19.43;;;;;;;10.11;100.00;-15200.66;5152959;27;20216;-60
2023/03/22 08:12:27;;;;;;;29.17;17.90;;;;;;;10.28;100.00;-15203.97;5152809;27;20186;-61
2023/03/22 08:14:55;;;;;;;24.90;17.77;;;;;;;10.10;100.00;-14882.66;5152240;27;20206;-61
2023/03/22 08:17:24;;;;;;;27.17;19.33;;;;;;;10.05;100.00;-15199.50;5152749;27;20629;-61
2023/03/22 08:19:53;;;;;;;29.43;17.70;;;;;;;10.06;100.00;-15199.78;5152635;27;20272;-60
2023/03/22 08:22:22;;;;;;;24.03;17.20;;;;;;;9.99;100.00;-14880.56;5152812;27;20287;-60
2023/03/22 08:24:51;;;;;;;27.83;18.60;;;;;;;9.91;100.00;-14879.03;5152203;27;20201;-61
2023/03/22 08:27:20;;;;;;;30.70;16.80;;;;;;;10.02;100.00;-14881.22;5152818;27;20632;-61
2023/03/22 08:29:47;;;;;;;20.13;15.57;;;;;;;10.02;100.00;-14245.50;5151816;27;20200;-61
2023/03/22 08:32:15;;;;;;;23.73;16.57;;;;;;;9.96;100.00;-13926.59;5152768;27;20209;-62
2023/03/22 08:34:44;;;;;;;22.83;17.20;;;;;;;9.96;100.00;-14244.41;5152489;27;20301;-59
2023/03/22 08:37:12;;;;;;;19.00;15.57;;;;;;;9.89;100.00;-14243.16;5151918;27;20600;-60
2023/03/22 08:39:39;;;;;;;15.70;14.03;;;;;;;9.78;100.00;-14241.19;5152302;27;20186;-62
2023/03/22 08:42:06;;;;;;;28.57;15.77;;;;;;;9.64;100.00;-14238.84;5156112;27;20633;-61
2023/03/22 08:44:33;;;;;;;24.57;17.10;;;;;;;9.55;100.00;-13919.59;5155752;27;20189;-62
2023/03/22 08:47:00;;;;;;;21.50;16.40;;;;;;;9.46;100.00;-13917.94;5155404;27;20226;-61
2023/03/22 08:49:27;;;;;;;24.90;17.63;;;;;;;9.26;100.00;-13914.53;5156080;27;20218;-61
2023/03/22 08:51:56;;;;;;;28.20;16.50;;;;;;;9.40;100.00;-13599.31;5138175;27;20213;-61
2023/03/22 08:54:23;;;;;;;32.30;17.20;;;;;;;9.30;100.00;-13280.13;5156713;27;20620;-62
2023/03/22 08:56:50;;;;;;;22.40;15.63;;;;;;;9.25;100.00;-12961.75;5137737;27;20178;-61
2023/03/22 08:59:17;;;;;;;24.27;17.33;;;;;;;9.35;100.00;-13280.97;5156189;27;20621;-60
2023/03/22 09:01:45;;;;;;;21.13;15.23;;;;;;;9.28;100.00;-12962.22;5156299;27;20186;-60
2023/03/22 09:04:12;;;;;;;23.93;16.40;;;;;;;9.30;100.00;-12962.53;5155076;27;20194;-61
2023/03/22 09:06:41;;;;;;;21.73;17.30;;;;;;;9.39;100.00;-12963.91;5155633;27;20182;-61
2023/03/22 09:09:10;;;;;;;18.53;15.93;;;;;;;9.27;100.00;-12644.47;5156198;27;20540;-61
2023/03/22 09:11:39;;;;;;;22.87;16.10;;;;;;;9.24;100.00;-12643.94;5156167;27;20233;-60
2023/03/22 09:14:05;;;;;;;21.47;16.20;;;;;;;9.29;100.00;-12644.78;5156182;27;20189;-62
2023/03/22 09:16:32;;;;;;;23.93;17.33;;;;;;;9.04;100.00;-12323.41;5155941;27;20205;-62
2023/03/22 09:19:00;;;;;;;22.00;17.47;;;;;;;9.20;100.00;-12325.72;5155284;27;20205;-61
2023/03/22 09:21:28;;;;;;;25.13;18.30;;;;;;;9.12;100.00;-12642.16;5156031;27;20685;-61
2023/03/22 09:23:55;;;;;;;26.03;16.57;;;;;;;9.17;100.00;-12643.00;5155958;27;20189;-61
2023/03/22 09:26:24;;;;;;;26.70;16.50;;;;;;;9.09;100.00;-12324.13;5155202;27;20186;-61
2023/03/22 09:28:51;;;;;;;21.30;16.50;;;;;;;9.12;100.00;-12324.59;5154947;27;20200;-62
2023/03/22 09:31:18;;;;;;;18.63;14.47;;;;;;;9.07;100.00;-12006.28;5155553;27;20186;-62
2023/03/22 09:33:45;;;;;;;18.93;15.37;;;;;;;8.98;100.00;-12004.97;5155648;27;20189;-61
2023/03/22 09:36:12;;;;;;;19.60;14.67;;;;;;;8.92;100.00;-11686.66;5155486;27;20225;-62
2023/03/22 09:38:40;;;;;;;23.07;15.83;;;;;;;8.99;100.00;-12005.13;5154557;27;20186;-62
2023/03/22 09:41:13;;;;;;;21.97;14.60;;;;;;;8.93;100.00;-12004.34;5154971;27;20277;-60
2023/03/22 09:43:45;;;;;;;17.13;13.93;;;;;;;8.90;100.00;-12003.91;5155424;27;20660;-60
2023/03/22 09:46:15;;;;;;;18.73;14.63;;;;;;;8.87;100.00;-11685.91;5155366;27;20200;-60
2023/03/22 09:48:44;;;;;;;17.57;14.50;;;;;;;8.86;100.00;-11685.78;5155523;27;20193;-61
2023/03/22 09:51:23;;;;;;;25.07;15.30;;;;;;;8.84;100.00;-11685.56;5154560;27;20575;-61
2023/03/22 09:53:50;;;;;;;20.93;15.27;;;;;;;8.72;100.00;-11683.88;5155338;27;20246;-60
2023/03/22 09:56:23;;;;;;;18.50;14.50;;;;;;;8.71;100.00;-11683.81;5155015;27;20526;-61
2023/03/22 09:58:56;;;;;;;16.43;14.60;;;;;;;8.77;100.00;-11684.53;5155397;27;20648;-61
2023/03/22 10:01:33;;;;;;;15.37;13.13;;;;;;;8.76;100.00;-11684.38;5155313;27;20560;-61
2023/03/22 10:04:20;;;;;;;23.70;16.53;;;;;;;8.70;100.00;-11366.19;5154349;27;20253;-63
2023/03/22 10:06:52;;;;;;;18.30;14.53;;;;;;;8.71;100.00;-11366.38;5155151;27;20178;-62
2023/03/22 10:09:27;;;;;;;17.23;14.00;;;;;;;8.53;100.00;-11363.97;5154760;27;20178;-61
2023/03/22 10:12:03;;;;;;;18.33;13.97;;;;;;;8.58;100.00;-11364.56;5154529;27;20186;-61
2023/03/22 10:14:35;;;;;;;18.67;14.63;;;;;;;8.54;100.00;-11046.72;5154326;27;20221;-61
2023/03/22 10:17:06;;;;;;;14.20;12.73;;;;;;;8.47;100.00;-11363.09;5154810;27;20189;-61
2023/03/22 10:19:36;;;;;;;14.00;12.57;;;;;;;8.59;100.00;-11682.09;5153691;27;20178;-62
2023/03/22 10:22:06;;;;;;;15.20;13.63;;;;;;;8.60;100.00;-11682.28;5154511;27;20210;-61
2023/03/22 10:24:35;;;;;;;15.00;12.47;;;;;;;8.51;100.00;-11681.03;5154247;27;20179;-61
2023/03/22 10:27:02;;;;;;;16.27;11.73;;;;;;;8.41;100.00;-11996.91;5154008;27;20537;-62
2023/03/22 10:29:36;;;;;;;15.60;13.40;;;;;;;8.39;100.00;-11996.63;5154625;27;20560;-62
2023/03/22 10:32:13;;;;;;;13.93;12.47;;;;;;;8.68;100.00;-12318.16;5153976;27;20174;-63
2023/03/22 10:34:42;;;;;;;13.67;12.27;;;;;;;8.71;100.00;-12318.53;5154215;27;20190;-62
2023/03/22 10:37:14;;;;;;;14.67;13.10;;;;;;;8.69;100.00;-11683.53;5153750;27;20186;-61
2023/03/22 10:39:45;;;;;;;12.27;11.03;;;;;;;8.51;100.00;-11363.69;5154741;27;20182;-61
2023/03/22 10:42:15;;;;;;;17.40;14.00;;;;;;;8.59;100.00;-11047.28;5154639;27;20586;-62
2023/03/22 10:44:49;;;;;;;16.13;14.30;;;;;;;8.56;100.00;-11046.91;5154194;27;20186;-62
2023/03/22 10:47:19;;;;;;;16.13;14.53;;;;;;;8.61;100.00;-11047.63;5154014;27;20222;-61
2023/03/22 10:49:52;;;;;;;16.83;14.10;;;;;;;8.63;100.00;-11047.88;5153912;27;20186;-60
2023/03/22 10:52:33;;;;;;;13.93;12.30;;;;;;;8.44;100.00;-10410.59;5153677;27;20238;-61
2023/03/22 10:55:00;;;;;;;12.10;10.80;;;;;;;8.60;100.00;-10095.00;5153238;27;20198;-60
2023/03/22 10:57:27;;;;;;;13.63;12.20;;;;;;;8.58;100.00;-10094.81;5153144;27;20192;-61
2023/03/22 10:59:57;;;;;;;12.50;11.20;;;;;;;8.58;100.00;-9459.66;5152992;27;20187;-61
2023/03/22 11:02:27;;;;;;;17.10;12.07;;;;;;;8.52;100.00;-9459.09;5152393;27;20190;-60
2023/03/22 11:04:57;;;;;;;15.23;12.97;;;;;;;8.58;100.00;-9777.28;5153619;27;20246;-61
2023/03/22 11:07:31;;;;;;;13.17;11.93;;;;;;;8.67;100.00;-10095.84;5134777;27;20678;-60
2023/03/22 11:10:11;;;;;;;11.80;9.67;;;;;;;8.41;100.00;-9457.97;5153416;27;20292;-61
2023/03/22 11:12:49;;;;;;;9.80;8.80;;;;;;;8.55;100.00;-10094.47;5154023;27;20178;-61
2023/03/22 11:15:36;;;;;;;9.40;8.77;;;;;;;8.53;100.00;-9776.69;5153240;27;20671;-61
2023/03/22 11:18:06;;;;;;;11.20;9.40;;;;;;;8.59;100.00;-9777.41;5153291;27;20190;-62
2023/03/22 11:20:34;;;;;;;9.50;8.80;;;;;;;8.68;100.00;-10413.50;5153304;27;20273;-60
2023/03/22 11:23:05;;;;;;;11.03;9.80;;;;;;;8.87;100.00;-10733.25;5153090;27;20193;-61